Time;durP1;ratioP1;P1;durP2;ratioP2;P2;SDS_P1;SDS_P2;PMS_P1;PMS_P2;Temp;Humidity;BMP_temperature;BMP_pressure;BME280_temperature;BME280_humidity;BME280_pressure;Samples;Min_cycle;Max_cycle;Signal;HPM_P1;HPM_P2
2022/12/11 00:00:16;;;;;;;105.63;39.35;;;;;;;-1.89;100.00;160083.72;5053469;28;20025;-63
2022/12/11 00:02:41;;;;;;;93.07;38.10;;;;;;;-1.92;100.00;160075.69;5051334;28;20105;-63
2022/12/11 00:05:07;;;;;;;94.20;34.65;;;;;;;-1.97;100.00;160063.63;5051258;28;20582;-61
2022/12/11 00:07:32;;;;;;;92.50;41.05;;;;;;;-1.82;100.00;160101.09;5052612;28;20112;-63
2022/12/11 00:09:58;;;;;;;105.25;43.17;;;;;;;-1.77;100.00;160115.81;5053022;28;20430;-63
2022/12/11 00:12:23;;;;;;;121.65;45.95;;;;;;;-1.74;100.00;160122.50;5051345;28;20045;-63
2022/12/11 00:14:48;;;;;;;117.38;47.63;;;;;;;-1.68;100.00;160138.59;5035015;28;20021;-64
2022/12/11 00:17:14;;;;;;;116.05;46.55;;;;;;;-1.64;100.00;160147.97;5031392;28;20042;-63
2022/12/11 00:19:39;;;;;;;101.05;40.92;;;;;;;-1.67;100.00;160141.25;5032956;28;20025;-63
2022/12/11 00:22:04;;;;;;;102.70;40.58;;;;;;;-1.65;100.00;160145.28;5034933;28;20107;-63
2022/12/11 00:24:30;;;;;;;109.03;42.53;;;;;;;-1.58;100.00;160162.66;5053006;28;20021;-63
2022/12/11 00:26:55;;;;;;;106.60;35.88;;;;;;;-1.62;100.00;160154.66;5046842;28;20044;-63
2022/12/11 00:29:20;;;;;;;104.78;41.67;;;;;;;-1.57;100.00;160165.34;5033335;28;20029;-63
2022/12/11 00:31:46;;;;;;;123.15;43.97;;;;;;;-1.54;100.00;160173.41;5031444;28;20400;-63
2022/12/11 00:34:11;;;;;;;103.43;38.78;;;;;;;-1.61;100.00;160157.34;5032323;28;20033;-63
2022/12/11 00:36:37;;;;;;;107.78;40.00;;;;;;;-1.53;100.00;160176.09;5031476;28;20034;-63
2022/12/11 00:39:04;;;;;;;105.85;43.35;;;;;;;-1.57;100.00;160165.34;5033031;28;20107;-63
2022/12/11 00:41:30;;;;;;;99.30;39.80;;;;;;;-1.53;100.00;160176.09;5030882;28;20125;-63
2022/12/11 00:43:56;;;;;;;116.47;43.80;;;;;;;-1.47;100.00;160193.47;5032554;28;20053;-63
2022/12/11 00:46:21;;;;;;;109.90;43.65;;;;;;;-1.45;100.00;160197.47;5030799;28;20045;-63
2022/12/11 00:48:48;;;;;;;101.97;43.10;;;;;;;-1.41;100.00;160208.19;5032324;28;20026;-63
2022/12/11 00:51:14;;;;;;;112.50;39.08;;;;;;;-1.45;100.00;160197.47;5041276;28;20567;-63
2022/12/11 00:53:40;;;;;;;114.28;44.05;;;;;;;-1.42;100.00;160205.50;5052619;28;20024;-63
2022/12/11 00:56:10;;;;;;;107.28;40.10;;;;;;;-1.43;100.00;160202.81;5050246;28;20045;-63
2022/12/11 00:58:36;;;;;;;120.78;38.85;;;;;;;-1.45;100.00;160197.47;5034901;28;20025;-63
2022/12/11 01:01:06;;;;;;;97.97;39.55;;;;;;;-1.46;100.00;160194.81;5030700;28;20041;-63
2022/12/11 01:03:32;;;;;;;103.88;42.00;;;;;;;-1.42;100.00;160204.19;5032232;28;20035;-63
2022/12/11 01:05:57;;;;;;;94.72;39.42;;;;;;;-1.46;100.00;160194.81;5039537;28;20499;-63
2022/12/11 01:08:22;;;;;;;105.30;40.35;;;;;;;-1.45;100.00;160197.47;5046093;28;20036;-64
2022/12/11 01:10:48;;;;;;;86.75;41.30;;;;;;;-1.37;100.00;160218.88;5050336;28;20073;-64
2022/12/11 01:13:14;;;;;;;79.20;34.67;;;;;;;-1.36;100.00;160221.56;5052018;28;20375;-64
2022/12/11 01:15:42;;;;;;;96.28;38.35;;;;;;;-1.35;100.00;160224.25;5050600;28;20048;-64
2022/12/11 01:18:09;;;;;;;66.43;36.50;;;;;;;-1.34;100.00;160225.63;5032529;28;20033;-64
2022/12/11 01:20:37;;;;;;;81.68;34.22;;;;;;;-1.33;100.00;160229.63;5030995;28;20040;-64
2022/12/11 01:23:02;;;;;;;97.27;36.10;;;;;;;-1.37;100.00;160218.88;5031728;28;20033;-64
2022/12/11 01:25:28;;;;;;;104.03;39.83;;;;;;;-1.37;100.00;160218.88;5030265;28;20464;-64
2022/12/11 01:27:54;;;;;;;99.70;39.30;;;;;;;-1.33;100.00;160229.63;5043068;28;20036;-64
2022/12/11 01:30:22;;;;;;;114.20;42.95;;;;;;;-1.33;100.00;160229.63;5050113;28;20025;-64
2022/12/11 01:32:48;;;;;;;80.33;33.23;;;;;;;-1.31;100.00;160233.63;5050242;28;20541;-64
2022/12/11 01:35:14;;;;;;;105.95;40.17;;;;;;;-1.36;100.00;160221.56;5051526;28;20427;-66
2022/12/11 01:37:40;;;;;;;105.75;37.80;;;;;;;-1.33;100.00;160229.63;5050148;28;20040;-66
2022/12/11 01:40:06;;;;;;;116.18;42.35;;;;;;;-1.30;100.00;160236.31;5041451;28;20385;-66
2022/12/11 01:42:32;;;;;;;119.93;44.72;;;;;;;-1.34;100.00;160226.94;5030201;28;20064;-66
2022/12/11 01:45:27;;;;;;;138.88;44.63;;;;;;;-1.29;100.00;160239.00;5031005;28;20033;-66
2022/12/11 01:48:01;;;;;;;122.82;41.17;;;;;;;-1.29;100.00;160240.31;5029323;28;20129;-66
2022/12/11 01:50:28;;;;;;;126.43;46.63;;;;;;;-1.29;100.00;160240.31;5012214;28;20032;-65
2022/12/11 01:52:53;;;;;;;117.28;44.53;;;;;;;-1.26;100.00;160245.69;5010070;28;20053;-66
2022/12/11 01:55:19;;;;;;;130.90;45.33;;;;;;;-1.23;100.00;160253.72;5011269;28;20033;-66
2022/12/11 01:57:47;;;;;;;132.30;45.72;;;;;;;-1.22;100.00;160256.38;5029348;28;20045;-66
2022/12/11 02:00:12;;;;;;;126.55;43.38;;;;;;;-1.20;100.00;160261.75;5037929;28;20029;-66
2022/12/11 02:02:38;;;;;;;129.57;46.58;;;;;;;-1.21;100.00;160260.41;5029774;28;20045;-65
2022/12/11 02:05:05;;;;;;;149.15;48.10;;;;;;;-1.22;100.00;160257.72;5031143;28;20024;-66
2022/12/11 02:07:37;;;;;;;135.65;46.03;;;;;;;-1.20;100.00;160261.75;5044972;28;20051;-65
2022/12/11 02:10:03;;;;;;;128.20;50.20;;;;;;;-1.15;100.00;160276.47;5050710;28;20025;-65
2022/12/11 02:12:40;;;;;;;108.53;43.28;;;;;;;-1.18;100.00;160268.41;5049502;28;20037;-65
2022/12/11 02:15:14;;;;;;;136.75;45.72;;;;;;;-1.14;100.00;160277.78;5037129;28;20040;-65
2022/12/11 02:17:45;;;;;;;160.65;45.05;;;;;;;-1.15;100.00;160275.09;5029326;28;20037;-65
2022/12/11 02:20:34;;;;;;;149.48;42.58;;;;;;;-1.14;100.00;160277.78;5030792;28;20036;-65
2022/12/11 02:23:14;;;;;;;133.65;47.97;;;;;;;-1.14;100.00;160277.78;5029287;28;20052;-65
2022/12/11 02:26:20;;;;;;;146.48;45.70;;;;;;;-1.14;100.00;160279.16;5029216;28;20026;-65
2022/12/11 02:28:50;;;;;;;132.50;47.20;;;;;;;-1.17;100.00;160269.78;5050958;28;20112;-64
2022/12/11 02:31:28;;;;;;;143.02;47.63;;;;;;;-1.14;100.00;160277.78;5047431;28;20053;-65
2022/12/11 02:34:14;;;;;;;129.32;53.17;;;;;;;-1.10;100.00;160287.16;5049904;28;20479;-64
2022/12/11 02:36:44;;;;;;;140.77;47.03;;;;;;;-1.12;100.00;160283.16;5049440;28;20098;-64
2022/12/11 02:39:13;;;;;;;147.15;49.80;;;;;;;-1.12;100.00;160283.16;5050390;28;20039;-64
2022/12/11 02:41:43;;;;;;;128.77;47.00;;;;;;;-1.10;100.00;160287.16;5038005;28;20049;-64
2022/12/11 02:44:10;;;;;;;124.93;47.78;;;;;;;-1.14;100.00;160277.78;5030380;28;20671;-64
2022/12/11 02:46:36;;;;;;;162.80;52.22;;;;;;;-1.09;100.00;160291.22;5029404;28;20589;-65
2022/12/11 02:49:04;;;;;;;136.88;45.30;;;;;;;-1.09;100.00;160291.22;5030429;28;20032;-64
2022/12/11 02:51:34;;;;;;;142.80;47.05;;;;;;;-1.08;100.00;160292.53;5029227;28;20099;-64
2022/12/11 02:54:01;;;;;;;134.48;45.30;;;;;;;-1.08;100.00;160293.84;5030277;28;20100;-64
2022/12/11 02:56:38;;;;;;;144.73;48.08;;;;;;;-1.08;100.00;160293.84;5028883;28;20049;-64
2022/12/11 02:59:10;;;;;;;168.30;52.60;;;;;;;-1.06;100.00;160299.22;5034642;28;20075;-65
2022/12/11 03:01:35;;;;;;;156.15;53.45;;;;;;;-1.05;100.00;160301.91;5048718;28;20122;-65
2022/12/11 03:04:00;;;;;;;151.55;56.10;;;;;;;-1.01;100.00;160311.28;5050071;28;20029;-65
2022/12/11 03:06:38;;;;;;;157.82;50.33;;;;;;;-1.02;100.00;160309.97;5049123;28;20059;-65
2022/12/11 03:09:05;;;;;;;137.23;49.43;;;;;;;-1.01;100.00;160312.66;5036980;28;20033;-64
2022/12/11 03:11:31;;;;;;;152.63;54.97;;;;;;;-1.07;100.00;160296.53;5032049;28;20041;-64
2022/12/11 03:13:56;;;;;;;174.73;51.78;;;;;;;-1.07;100.00;160296.53;5034231;28;20069;-64
2022/12/11 03:16:32;;;;;;;150.40;51.10;;;;;;;-1.03;100.00;160305.91;5032576;28;20042;-63
2022/12/11 03:19:03;;;;;;;161.60;49.95;;;;;;;-1.03;100.00;160307.28;5035110;28;20071;-63
2022/12/11 03:21:39;;;;;;;156.02;51.70;;;;;;;-1.04;100.00;160304.59;5032959;28;20120;-63
2022/12/11 03:24:10;;;;;;;159.63;49.38;;;;;;;-1.05;100.00;160301.91;5033735;28;20396;-62
2022/12/11 03:26:41;;;;;;;136.65;47.90;;;;;;;-1.05;100.00;160300.59;5033106;28;20049;-62
2022/12/11 03:29:19;;;;;;;157.98;50.70;;;;;;;-1.06;100.00;160299.22;5033668;28;20480;-62
2022/12/11 03:32:14;;;;;;;159.43;58.42;;;;;;;-1.04;100.00;160304.59;5032359;28;20436;-62
2022/12/11 03:34:53;;;;;;;157.77;49.20;;;;;;;-1.09;100.00;160291.22;5042693;28;20399;-63
2022/12/11 03:37:21;;;;;;;156.25;50.80;;;;;;;-1.12;100.00;160283.16;5052373;28;20140;-62
2022/12/11 03:39:51;;;;;;;148.15;46.40;;;;;;;-1.06;100.00;160297.91;5038730;28;20029;-62
2022/12/11 03:42:19;;;;;;;153.43;49.35;;;;;;;-1.10;100.00;160288.53;5037536;28;20127;-62
2022/12/11 03:44:48;;;;;;;113.63;42.00;;;;;;;-1.06;100.00;160299.22;5046929;28;20411;-62
2022/12/11 03:47:18;;;;;;;131.40;44.45;;;;;;;-1.11;100.00;160285.84;5051719;28;20834;-62
2022/12/11 03:49:44;;;;;;;161.65;52.10;;;;;;;-1.07;100.00;160295.22;5053777;28;20024;-62
2022/12/11 03:52:12;;;;;;;154.98;50.65;;;;;;;-1.03;100.00;160307.28;5031927;28;20041;-62
2022/12/11 03:54:39;;;;;;;140.68;50.20;;;;;;;-0.98;100.00;160320.66;5033379;28;20191;-62
2022/12/11 03:57:07;;;;;;;147.98;50.75;;;;;;;-0.98;100.00;160320.66;5032228;28;20119;-62
2022/12/11 03:59:32;;;;;;;149.43;56.42;;;;;;;-0.98;100.00;160320.66;5033544;28;20060;-62
2022/12/11 04:01:58;;;;;;;160.50;48.80;;;;;;;-1.00;100.00;160315.28;5031452;28;20037;-62
2022/12/11 04:04:23;;;;;;;141.00;45.88;;;;;;;-0.92;100.00;160334.03;5033513;28;20083;-62
2022/12/11 04:06:49;;;;;;;138.15;48.05;;;;;;;-0.90;100.00;160339.41;5032158;28;20048;-62
2022/12/11 04:09:14;;;;;;;131.07;46.58;;;;;;;-0.90;100.00;160339.41;5032997;28;20427;-62
2022/12/11 04:11:41;;;;;;;154.13;53.20;;;;;;;-0.88;100.00;160344.78;5050909;28;20037;-62
2022/12/11 04:16:56;;;;;;;135.68;53.15;;;;;;;-0.84;100.00;160355.47;5051266;28;20055;-61
2022/12/11 04:25:01;;;;;;;138.32;48.13;;;;;;;-0.94;100.00;160328.72;5052748;28;20035;-64
2022/12/11 04:30:21;;;;;;;125.35;45.88;;;;;;;-1.00;100.00;160313.97;5052604;28;20123;-64
2022/12/11 04:32:47;;;;;;;129.82;42.38;;;;;;;-0.94;100.00;160328.72;5039618;28;20132;-64
2022/12/11 04:35:13;;;;;;;145.38;48.60;;;;;;;-0.89;100.00;160342.09;5032796;28;20028;-64
2022/12/11 04:37:38;;;;;;;131.70;45.35;;;;;;;-0.89;100.00;160342.09;5030988;28;20575;-64
2022/12/11 04:40:07;;;;;;;129.88;47.75;;;;;;;-0.93;100.00;160331.41;5032839;28;20100;-62
2022/12/11 04:42:32;;;;;;;131.90;51.67;;;;;;;-1.00;100.00;160315.28;5031172;28;20095;-62
2022/12/11 04:44:58;;;;;;;131.55;48.67;;;;;;;-1.00;100.00;160315.28;5032505;28;20041;-63
2022/12/11 04:47:23;;;;;;;137.75;48.85;;;;;;;-0.91;100.00;160336.72;5030991;28;20045;-64
2022/12/11 04:49:48;;;;;;;139.07;47.42;;;;;;;-0.96;100.00;160326.03;5032668;28;20034;-62
2022/12/11 04:52:14;;;;;;;140.35;44.92;;;;;;;-1.00;100.00;160315.28;5030907;28;20041;-63
2022/12/11 04:54:39;;;;;;;128.77;43.72;;;;;;;-1.01;100.00;160311.28;5033476;28;20032;-63
2022/12/11 04:57:04;;;;;;;128.60;48.15;;;;;;;-0.98;100.00;160319.34;5050725;28;20045;-63
2022/12/11 04:59:31;;;;;;;124.60;43.85;;;;;;;-0.98;100.00;160320.66;5050789;28;20033;-63
2022/12/11 05:01:56;;;;;;;156.27;49.70;;;;;;;-0.99;100.00;160316.66;5036126;28;20385;-63
2022/12/11 05:04:22;;;;;;;145.35;44.60;;;;;;;-1.01;100.00;160312.66;5049896;28;20031;-63
2022/12/11 05:06:49;;;;;;;130.35;45.80;;;;;;;-0.89;100.00;160342.09;5050920;28;20063;-63
2022/12/11 05:09:14;;;;;;;117.18;37.92;;;;;;;-0.89;100.00;160343.41;5051517;28;20025;-63
2022/12/11 05:11:39;;;;;;;107.70;44.92;;;;;;;-0.83;100.00;160358.16;5049207;28;20695;-63
2022/12/11 05:14:05;;;;;;;115.72;44.97;;;;;;;-0.84;100.00;160355.47;5051946;28;20033;-63
2022/12/11 05:16:30;;;;;;;108.63;41.50;;;;;;;-0.84;100.00;160355.47;5050371;28;20047;-63
2022/12/11 05:18:55;;;;;;;122.93;46.80;;;;;;;-0.89;100.00;160343.41;5034102;28;20033;-63
2022/12/11 05:21:21;;;;;;;128.70;45.10;;;;;;;-0.83;100.00;160358.16;5030355;28;20049;-63
2022/12/11 05:23:46;;;;;;;119.85;42.90;;;;;;;-0.85;100.00;160354.16;5031793;28;20463;-63
2022/12/11 05:26:15;;;;;;;135.88;50.40;;;;;;;-0.84;100.00;160355.47;5030513;28;20041;-63
2022/12/11 05:28:41;;;;;;;129.60;44.85;;;;;;;-0.80;100.00;160367.53;5036049;28;20029;-63
2022/12/11 05:31:15;;;;;;;119.60;39.90;;;;;;;-0.82;100.00;160360.84;5049849;28;20041;-63
2022/12/11 05:33:41;;;;;;;113.75;43.75;;;;;;;-0.80;100.00;160366.22;5051084;28;20032;-63
2022/12/11 05:36:07;;;;;;;115.07;45.72;;;;;;;-0.78;100.00;160371.53;5047120;28;21758;-63
2022/12/11 05:38:33;;;;;;;98.10;43.00;;;;;;;-0.87;100.00;160347.47;5031574;28;20276;-63
2022/12/11 05:41:01;;;;;;;111.90;41.65;;;;;;;-0.85;100.00;160352.78;5029912;28;20068;-62
2022/12/11 05:43:28;;;;;;;133.90;43.47;;;;;;;-0.88;100.00;160344.78;5031857;28;20049;-62
2022/12/11 05:45:54;;;;;;;132.57;40.30;;;;;;;-0.88;100.00;160346.09;5042041;28;20052;-61
2022/12/11 05:48:19;;;;;;;126.28;41.10;;;;;;;-0.77;100.00;160374.22;5051390;28;20026;-61
2022/12/11 05:50:55;;;;;;;131.23;43.60;;;;;;;-0.77;100.00;160374.22;5049586;28;20021;-63
2022/12/11 05:53:21;;;;;;;109.03;42.38;;;;;;;-0.76;100.00;160375.56;5050389;28;20468;-63
2022/12/11 05:55:46;;;;;;;122.93;46.50;;;;;;;-0.75;100.00;160378.25;5042600;28;20032;-63
2022/12/11 05:58:11;;;;;;;128.60;40.63;;;;;;;-0.75;100.00;160378.25;5030756;28;20014;-64
2022/12/11 06:00:39;;;;;;;102.15;40.17;;;;;;;-0.75;100.00;160378.25;5031009;28;20086;-65
2022/12/11 06:03:05;;;;;;;101.20;36.92;;;;;;;-0.73;100.00;160384.94;5029754;28;20038;-64
2022/12/11 06:05:30;;;;;;;119.25;40.45;;;;;;;-0.73;100.00;160384.94;5034587;28;20071;-62
2022/12/11 06:07:55;;;;;;;118.95;42.15;;;;;;;-0.72;100.00;160387.63;5030660;28;20041;-62
2022/12/11 06:10:21;;;;;;;125.78;41.15;;;;;;;-0.71;100.00;160390.28;5031185;28;20044;-63
2022/12/11 06:12:46;;;;;;;117.93;44.55;;;;;;;-0.74;100.00;160382.28;5044955;28;20071;-63
2022/12/11 06:15:11;;;;;;;112.25;37.50;;;;;;;-0.72;100.00;160387.63;5030863;28;20026;-62
2022/12/11 06:17:37;;;;;;;122.55;41.78;;;;;;;-0.67;100.00;160401.03;5029712;28;20514;-62
2022/12/11 06:20:02;;;;;;;112.65;41.17;;;;;;;-0.66;100.00;160403.69;5029037;28;20091;-62
2022/12/11 06:22:28;;;;;;;131.52;42.63;;;;;;;-0.67;100.00;160401.03;5035743;28;20053;-63
2022/12/11 06:24:53;;;;;;;113.18;39.88;;;;;;;-0.69;100.00;160395.66;5038232;28;20032;-63
2022/12/11 06:27:18;;;;;;;113.68;45.90;;;;;;;-0.71;100.00;160390.28;5028882;28;20038;-64
2022/12/11 06:29:45;;;;;;;110.32;39.17;;;;;;;-0.71;100.00;160390.28;5042443;28;20433;-63
2022/12/11 06:32:10;;;;;;;128.48;44.22;;;;;;;-0.81;100.00;160363.53;5040989;28;20903;-64
2022/12/11 06:34:35;;;;;;;115.00;42.97;;;;;;;-0.70;100.00;160392.97;5030683;28;20025;-63
2022/12/11 06:37:01;;;;;;;125.35;42.92;;;;;;;-0.70;100.00;160392.97;5028567;28;20613;-62
2022/12/11 06:39:26;;;;;;;116.05;47.92;;;;;;;-0.72;100.00;160387.63;5036097;28;20017;-61
2022/12/11 06:41:51;;;;;;;128.20;44.05;;;;;;;-0.69;100.00;160395.66;5033175;28;20045;-60
2022/12/11 06:44:17;;;;;;;117.53;44.85;;;;;;;-0.71;100.00;160390.28;5029880;28;20048;-60
2022/12/11 06:46:42;;;;;;;127.60;41.58;;;;;;;-0.68;100.00;160397.00;5044020;28;20041;-60
2022/12/11 06:49:08;;;;;;;134.75;48.92;;;;;;;-0.65;100.00;160406.38;5046613;28;20025;-61
2022/12/11 06:51:33;;;;;;;129.95;44.50;;;;;;;-0.71;100.00;160390.28;5033960;28;20048;-61
2022/12/11 06:53:58;;;;;;;105.50;39.83;;;;;;;-0.70;100.00;160392.97;5041611;28;20025;-61
2022/12/11 06:56:24;;;;;;;146.63;45.97;;;;;;;-0.74;100.00;160380.91;5047607;28;20040;-61
2022/12/11 06:58:50;;;;;;;119.18;45.78;;;;;;;-0.80;100.00;160366.22;5040262;28;20017;-61
2022/12/11 07:01:25;;;;;;;117.05;46.00;;;;;;;-0.74;100.00;160380.91;5029551;28;20048;-61
2022/12/11 07:03:54;;;;;;;112.95;37.65;;;;;;;-0.76;100.00;160375.56;5029186;28;20291;-61
2022/12/11 07:06:20;;;;;;;107.18;39.95;;;;;;;-0.81;100.00;160363.53;5028357;28;20041;-61
2022/12/11 07:08:45;;;;;;;130.43;39.45;;;;;;;-0.83;100.00;160358.16;5030106;28;20361;-61
2022/12/11 07:11:13;;;;;;;131.85;40.83;;;;;;;-0.71;100.00;160390.28;5036015;28;20751;-60
2022/12/11 07:13:40;;;;;;;121.05;49.40;;;;;;;-0.69;100.00;160394.31;5043637;28;20029;-60
2022/12/11 07:16:09;;;;;;;124.35;44.40;;;;;;;-0.64;100.00;160407.72;5047479;28;20434;-60
2022/12/11 07:18:35;;;;;;;118.82;38.20;;;;;;;-0.65;100.00;160406.38;5048324;28;20060;-60
2022/12/11 07:21:01;;;;;;;123.72;41.95;;;;;;;-0.63;100.00;160409.06;5047785;28;20045;-60
2022/12/11 07:23:27;;;;;;;110.88;42.53;;;;;;;-0.57;100.00;160425.13;5034936;28;20048;-60
2022/12/11 07:25:53;;;;;;;132.10;45.35;;;;;;;-0.57;100.00;160425.13;5027370;28;20078;-60
2022/12/11 07:28:18;;;;;;;115.00;40.28;;;;;;;-0.69;100.00;160395.66;5031951;28;20679;-60
2022/12/11 07:30:43;;;;;;;110.93;42.67;;;;;;;-0.76;100.00;160376.91;5035192;28;20024;-60
2022/12/11 07:33:09;;;;;;;110.90;40.47;;;;;;;-0.74;100.00;160382.28;5048416;28;20032;-60
2022/12/11 07:35:35;;;;;;;139.18;44.03;;;;;;;-0.72;100.00;160386.28;5049007;28;20028;-60
2022/12/11 07:38:00;;;;;;;119.60;40.35;;;;;;;-0.68;100.00;160398.34;5036878;28;20045;-60
2022/12/11 07:40:26;;;;;;;126.20;42.95;;;;;;;-0.68;100.00;160397.00;5031853;28;20076;-60
2022/12/11 07:42:51;;;;;;;100.28;43.10;;;;;;;-0.67;100.00;160399.69;5026669;28;20037;-60
2022/12/11 07:45:17;;;;;;;122.28;41.75;;;;;;;-0.63;100.00;160409.06;5034163;28;20524;-60
2022/12/11 07:47:42;;;;;;;121.88;39.78;;;;;;;-0.66;100.00;160403.69;5042484;28;20118;-60
2022/12/11 07:50:08;;;;;;;120.97;39.47;;;;;;;-0.66;100.00;160403.69;5042633;28;20029;-60
2022/12/11 07:52:33;;;;;;;116.13;44.65;;;;;;;-0.71;100.00;160390.28;5027477;28;20038;-60
2022/12/11 07:54:58;;;;;;;118.25;41.97;;;;;;;-0.79;100.00;160368.88;5035806;28;20468;-60
2022/12/11 07:57:24;;;;;;;125.45;43.00;;;;;;;-0.66;100.00;160402.34;5049563;28;20037;-60
2022/12/11 07:59:49;;;;;;;116.03;42.17;;;;;;;-0.68;100.00;160398.34;5052020;28;20021;-60
2022/12/11 08:02:14;;;;;;;126.40;48.17;;;;;;;-0.67;100.00;160401.03;5050887;28;20044;-60
2022/12/11 08:04:40;;;;;;;131.82;47.60;;;;;;;-0.72;100.00;160387.63;5043925;28;20028;-60
2022/12/11 08:07:05;;;;;;;119.05;42.42;;;;;;;-0.67;100.00;160399.69;5030797;28;20053;-60
2022/12/11 08:09:31;;;;;;;120.65;43.00;;;;;;;-0.68;100.00;160398.34;5032796;28;20029;-60
2022/12/11 08:11:56;;;;;;;128.63;42.78;;;;;;;-0.63;100.00;160409.06;5041889;28;20059;-60
2022/12/11 08:14:21;;;;;;;121.10;45.60;;;;;;;-0.69;100.00;160395.66;5028078;28;20127;-60
2022/12/11 08:16:48;;;;;;;127.80;43.88;;;;;;;-0.73;100.00;160384.94;5031327;28;20042;-60
2022/12/11 08:19:14;;;;;;;129.40;43.17;;;;;;;-0.63;100.00;160410.38;5031517;28;20021;-60
2022/12/11 08:21:40;;;;;;;119.18;45.78;;;;;;;-0.65;100.00;160406.38;5040556;28;20056;-60
2022/12/11 08:24:05;;;;;;;111.90;39.97;;;;;;;-0.60;100.00;160417.09;5052025;28;20044;-60
2022/12/11 08:26:31;;;;;;;142.77;44.47;;;;;;;-0.57;100.00;160425.13;5050231;28;20376;-60
2022/12/11 08:28:57;;;;;;;138.23;47.72;;;;;;;-0.66;100.00;160403.69;5051187;28;20072;-60
2022/12/11 08:31:23;;;;;;;128.85;51.55;;;;;;;-0.58;100.00;160422.47;5044689;28;20045;-60
2022/12/11 08:33:50;;;;;;;124.88;46.40;;;;;;;-0.55;100.00;160431.81;5051470;28;20083;-60
2022/12/11 08:36:18;;;;;;;132.52;46.53;;;;;;;-0.51;100.00;160441.22;5042769;28;20084;-60
2022/12/11 08:38:45;;;;;;;128.68;43.38;;;;;;;-0.50;100.00;160443.91;5046767;28;20025;-60
2022/12/11 08:41:16;;;;;;;139.18;45.50;;;;;;;-0.47;100.00;160451.91;5049545;28;20037;-60
2022/12/11 08:43:42;;;;;;;116.88;44.35;;;;;;;-0.43;100.00;160462.66;5051185;28;20037;-59
2022/12/11 08:46:08;;;;;;;108.57;44.15;;;;;;;-0.43;100.00;160462.66;5047777;28;20141;-60
2022/12/11 08:48:35;;;;;;;107.80;39.95;;;;;;;-0.38;100.00;160476.03;5031091;28;20052;-60
2022/12/11 08:51:03;;;;;;;120.88;42.58;;;;;;;-0.43;100.00;160462.66;5031067;28;20412;-60
2022/12/11 08:53:29;;;;;;;108.38;43.17;;;;;;;-0.49;100.00;160446.56;5032997;28;20112;-60
2022/12/11 08:56:07;;;;;;;119.43;44.03;;;;;;;-0.42;100.00;160465.34;5033966;28;20104;-60
2022/12/11 08:58:32;;;;;;;134.18;48.75;;;;;;;-0.41;100.00;160467.97;5037436;28;20045;-61
2022/12/11 09:00:58;;;;;;;129.23;39.13;;;;;;;-0.39;100.00;160472.03;5041988;28;20103;-61
2022/12/11 09:03:24;;;;;;;108.15;41.97;;;;;;;-0.41;100.00;160466.66;5050714;28;20028;-61
2022/12/11 09:05:49;;;;;;;118.85;43.75;;;;;;;-0.45;100.00;160457.28;5031142;28;20212;-60
2022/12/11 09:08:14;;;;;;;118.13;44.22;;;;;;;-0.44;100.00;160459.97;5031721;28;20030;-61
2022/12/11 09:10:40;;;;;;;118.60;42.83;;;;;;;-0.37;100.00;160478.72;5039702;28;20017;-61
2022/12/11 09:13:05;;;;;;;114.72;45.10;;;;;;;-0.36;100.00;160481.41;5030301;28;20025;-61
2022/12/11 09:15:30;;;;;;;129.15;47.20;;;;;;;-0.34;100.00;160486.78;5051431;28;20020;-61
2022/12/11 09:17:56;;;;;;;127.53;45.20;;;;;;;-0.33;100.00;160488.09;5048729;28;20048;-61
2022/12/11 09:20:21;;;;;;;116.03;37.65;;;;;;;-0.28;100.00;160500.16;5045872;28;20025;-61
2022/12/11 09:22:47;;;;;;;130.30;45.35;;;;;;;-0.28;100.00;160500.16;5029899;28;20044;-61
2022/12/11 09:25:12;;;;;;;109.10;41.13;;;;;;;-0.27;100.00;160502.84;5030339;28;20033;-61
2022/12/11 09:27:38;;;;;;;99.85;41.38;;;;;;;-0.25;100.00;160508.16;5037912;28;20118;-61
2022/12/11 09:30:04;;;;;;;110.65;41.65;;;;;;;-0.26;100.00;160506.84;5050892;28;20032;-61
2022/12/11 09:32:29;;;;;;;118.68;43.63;;;;;;;-0.29;100.00;160497.47;5048789;28;20033;-61
2022/12/11 09:34:55;;;;;;;123.07;41.92;;;;;;;-0.23;100.00;160513.53;5050697;28;20036;-61
2022/12/11 09:37:20;;;;;;;110.57;42.33;;;;;;;-0.18;100.00;160526.91;5045298;28;20037;-61
2022/12/11 09:39:46;;;;;;;112.95;43.53;;;;;;;-0.18;100.00;160526.91;5030301;28;20036;-61
2022/12/11 09:42:19;;;;;;;112.47;45.70;;;;;;;-0.14;100.00;160537.66;5032573;28;20508;-61
2022/12/11 09:44:50;;;;;;;127.28;44.53;;;;;;;-0.17;100.00;160529.59;5020494;28;20407;-61
2022/12/11 09:47:35;;;;;;;111.07;44.72;;;;;;;-0.20;100.00;160521.59;5015565;28;20049;-61
2022/12/11 09:50:09;;;;;;;120.15;43.45;;;;;;;-0.17;100.00;160529.59;5024805;28;20127;-61
2022/12/11 09:52:40;;;;;;;102.45;44.15;;;;;;;-0.17;100.00;160529.59;5012235;28;20054;-61
2022/12/11 09:55:15;;;;;;;124.07;47.00;;;;;;;-0.16;100.00;160532.28;5022949;28;20048;-60
2022/12/11 09:58:08;;;;;;;126.72;48.30;;;;;;;-0.18;100.00;160528.28;5019574;28;20042;-60
2022/12/11 10:00:53;;;;;;;112.82;44.05;;;;;;;-0.20;100.00;160521.59;5011558;28;20539;-60
2022/12/11 10:04:01;;;;;;;110.45;43.30;;;;;;;-0.20;100.00;160522.91;5025458;28;20052;-61
2022/12/11 10:06:45;;;;;;;124.38;45.25;;;;;;;-0.18;100.00;160526.91;5023522;28;20416;-60
2022/12/11 10:09:29;;;;;;;109.32;43.65;;;;;;;-0.11;100.00;160545.69;5021161;28;20045;-60
2022/12/11 10:12:11;;;;;;;116.80;43.72;;;;;;;-0.12;100.00;160543.03;5018072;28;20504;-60
2022/12/11 10:14:39;;;;;;;125.65;44.05;;;;;;;-0.10;100.00;160547.03;5030283;28;20056;-60
2022/12/11 10:17:19;;;;;;;115.68;38.90;;;;;;;-0.12;100.00;160543.03;5029059;28;20041;-60
2022/12/11 10:19:45;;;;;;;130.10;47.05;;;;;;;-0.10;100.00;160548.38;5012576;28;20095;-60
2022/12/11 10:22:23;;;;;;;133.65;50.55;;;;;;;-0.10;100.00;160548.38;5009185;28;20034;-60
2022/12/11 10:24:55;;;;;;;121.77;43.50;;;;;;;-0.11;100.00;160545.69;5010778;28;20030;-60
2022/12/11 10:27:25;;;;;;;109.95;47.13;;;;;;;-0.14;100.00;160537.66;5009009;28;20042;-60
2022/12/11 10:30:00;;;;;;;103.88;48.92;;;;;;;-0.11;100.00;160545.69;5007609;28;20025;-60
2022/12/11 10:32:35;;;;;;;113.75;45.47;;;;;;;-0.05;100.00;160561.81;5019585;28;20500;-60
2022/12/11 10:35:05;;;;;;;106.50;43.42;;;;;;;0.00;100.00;160573.88;5029867;28;20033;-60
2022/12/11 10:37:30;;;;;;;114.38;46.45;;;;;;;0.01;100.00;160576.50;5023470;28;20033;-60
2022/12/11 10:39:55;;;;;;;106.60;42.72;;;;;;;-0.02;100.00;160569.81;5009947;28;20389;-60
2022/12/11 10:42:22;;;;;;;102.03;47.33;;;;;;;-0.06;100.00;160559.13;5008742;28;20046;-60
2022/12/11 10:44:55;;;;;;;98.43;42.50;;;;;;;-0.07;100.00;160556.44;5027114;28;20468;-60
2022/12/11 10:47:21;;;;;;;102.93;41.33;;;;;;;-0.03;100.00;160565.81;5036464;28;20046;-60
2022/12/11 10:49:57;;;;;;;106.97;42.85;;;;;;;-0.01;100.00;160572.50;5029907;28;20439;-60
2022/12/11 10:52:32;;;;;;;96.10;41.90;;;;;;;0.00;100.00;160573.88;5042340;28;20068;-61
2022/12/11 10:55:23;;;;;;;103.60;42.47;;;;;;;0.03;100.00;160580.56;5064137;28;20029;-60
2022/12/11 10:57:59;;;;;;;80.65;38.88;;;;;;;0.07;100.00;160592.63;5045790;28;20102;-60
2022/12/11 11:00:31;;;;;;;93.22;40.13;;;;;;;0.08;100.00;160593.94;5034946;28;20033;-60
2022/12/11 11:02:57;;;;;;;89.55;41.42;;;;;;;0.07;100.00;160591.25;5047645;28;20037;-60
2022/12/11 11:05:33;;;;;;;103.35;46.05;;;;;;;0.07;100.00;160591.25;5038857;28;20033;-61
2022/12/11 11:08:20;;;;;;;106.03;47.40;;;;;;;0.10;100.00;160599.31;5038181;28;20044;-61
2022/12/11 11:10:59;;;;;;;105.13;43.40;;;;;;;0.06;100.00;160588.56;5041582;28;20035;-61